sensor_id;sensor_type;location;lat;lon;timestamp;pressure;altitude;pressure_sealevel;temperature;humidity
23899;BME280;20544;50.018;20.010;2023-01-31T00:00:54;98005.84;;;1.67;100.00
23899;BME280;20544;50.018;20.010;2023-01-31T00:04:11;97988.80;;;1.63;100.00
23899;BME280;20544;50.018;20.010;2023-01-31T00:07:28;98006.41;;;1.60;100.00
23899;BME280;20544;50.018;20.010;2023-01-31T00:10:44;97987.99;;;1.62;100.00
23899;BME280;20544;50.018;20.010;2023-01-31T00:14:02;97993.26;;;1.52;100.00
23899;BME280;20544;50.018;20.010;2023-01-31T00:17:19;97997.61;;;1.61;100.00
23899;BME280;20544;50.018;20.010;2023-01-31T00:20:38;98009.03;;;1.60;100.00
23899;BME280;20544;50.018;20.010;2023-01-31T00:23:56;98019.64;;;1.59;100.00
23899;BME280;20544;50.018;20.010;2023-01-31T00:27:13;98018.83;;;1.58;100.00
23899;BME280;20544;50.018;20.010;2023-01-31T00:30:32;98008.48;;;1.57;100.00
23899;BME280;20544;50.018;20.010;2023-01-31T00:33:51;98009.36;;;1.48;100.00
23899;BME280;20544;50.018;20.010;2023-01-31T00:37:08;98022.28;;;1.49;100.00
23899;BME280;20544;50.018;20.010;2023-01-31T00:40:24;98031.95;;;1.39;100.00
23899;BME280;20544;50.018;20.010;2023-01-31T00:43:41;98030.14;;;1.39;100.00
23899;BME280;20544;50.018;20.010;2023-01-31T00:46:57;98031.40;;;1.35;100.00
23899;BME280;20544;50.018;20.010;2023-01-31T00:50:17;98021.24;;;1.32;100.00
23899;BME280;20544;50.018;20.010;2023-01-31T00:53:35;98030.70;;;1.33;100.00
23899;BME280;20544;50.018;20.010;2023-01-31T00:56:51;98028.94;;;1.34;100.00
23899;BME280;20544;50.018;20.010;2023-01-31T01:00:10;98032.66;;;1.31;100.00
23899;BME280;20544;50.018;20.010;2023-01-31T01:03:27;98031.25;;;1.37;100.00
23899;BME280;20544;50.018;20.010;2023-01-31T01:06:44;98033.05;;;1.36;100.00
23899;BME280;20544;50.018;20.010;2023-01-31T01:10:00;98035.66;;;1.36;100.00
23899;BME280;20544;50.018;20.010;2023-01-31T01:13:17;98058.64;;;1.33;100.00
23899;BME280;20544;50.018;20.010;2023-01-31T01:16:36;98066.08;;;1.27;100.00
23899;BME280;20544;50.018;20.010;2023-01-31T01:19:53;98057.29;;;1.19;100.00
23899;BME280;20544;50.018;20.010;2023-01-31T01:23:11;98062.91;;;1.24;100.00
23899;BME280;20544;50.018;20.010;2023-01-31T01:26:32;98059.77;;;1.10;100.00
23899;BME280;20544;50.018;20.010;2023-01-31T01:29:49;98054.23;;;1.23;100.00
23899;BME280;20544;50.018;20.010;2023-01-31T01:33:06;98066.78;;;1.20;100.00
23899;BME280;20544;50.018;20.010;2023-01-31T01:36:23;98064.02;;;1.21;100.00
23899;BME280;20544;50.018;20.010;2023-01-31T01:39:40;98064.56;;;1.25;100.00
23899;BME280;20544;50.018;20.010;2023-01-31T01:42:57;98069.91;;;1.23;100.00
23899;BME280;20544;50.018;20.010;2023-01-31T01:46:17;98073.52;;;1.22;100.00
23899;BME280;20544;50.018;20.010;2023-01-31T01:49:38;98083.41;;;1.19;100.00
23899;BME280;20544;50.018;20.010;2023-01-31T01:52:56;98081.90;;;1.26;100.00
23899;BME280;20544;50.018;20.010;2023-01-31T01:56:18;98084.22;;;1.29;100.00
23899;BME280;20544;50.018;20.010;2023-01-31T01:59:39;98076.38;;;1.29;100.00
23899;BME280;20544;50.018;20.010;2023-01-31T02:03:01;98084.91;;;1.31;100.00
23899;BME280;20544;50.018;20.010;2023-01-31T02:06:19;98091.36;;;1.27;100.00
23899;BME280;20544;50.018;20.010;2023-01-31T02:09:41;98095.08;;;1.24;100.00
23899;BME280;20544;50.018;20.010;2023-01-31T02:12:59;98090.95;;;1.32;100.00
23899;BME280;20544;50.018;20.010;2023-01-31T02:16:16;98100.05;;;1.27;100.00
23899;BME280;20544;50.018;20.010;2023-01-31T02:19:38;98100.44;;;1.33;100.00
23899;BME280;20544;50.018;20.010;2023-01-31T02:23:05;98107.59;;;1.31;100.00
23899;BME280;20544;50.018;20.010;2023-01-31T02:26:58;98101.14;;;1.35;100.00
23899;BME280;20544;50.018;20.010;2023-01-31T02:30:52;98108.14;;;1.34;100.00
23899;BME280;20544;50.018;20.010;2023-01-31T02:34:29;98117.22;;;1.40;100.00
23899;BME280;20544;50.018;20.010;2023-01-31T02:37:55;98127.67;;;1.40;100.00
23899;BME280;20544;50.018;20.010;2023-01-31T02:41:18;98128.77;;;1.47;100.00
23899;BME280;20544;50.018;20.010;2023-01-31T02:44:44;98124.91;;;1.41;100.00
23899;BME280;20544;50.018;20.010;2023-01-31T02:48:18;98129.84;;;1.44;100.00
23899;BME280;20544;50.018;20.010;2023-01-31T02:51:41;98138.64;;;1.53;100.00
23899;BME280;20544;50.018;20.010;2023-01-31T02:55:09;98146.22;;;1.56;100.00
23899;BME280;20544;50.018;20.010;2023-01-31T02:58:42;98147.48;;;1.52;100.00
23899;BME280;20544;50.018;20.010;2023-01-31T03:02:04;98160.25;;;1.55;100.00
23899;BME280;20544;50.018;20.010;2023-01-31T03:05:22;98174.56;;;1.61;100.00
23899;BME280;20544;50.018;20.010;2023-01-31T03:08:39;98174.83;;;1.58;100.00
23899;BME280;20544;50.018;20.010;2023-01-31T03:12:00;98171.66;;;1.64;100.00
23899;BME280;20544;50.018;20.010;2023-01-31T03:15:42;98180.20;;;1.66;100.00
23899;BME280;20544;50.018;20.010;2023-01-31T03:19:18;98180.75;;;1.70;100.00
23899;BME280;20544;50.018;20.010;2023-01-31T03:22:39;98181.01;;;1.67;100.00
23899;BME280;20544;50.018;20.010;2023-01-31T03:25:59;98187.08;;;1.67;100.00
23899;BME280;20544;50.018;20.010;2023-01-31T03:29:17;98188.15;;;1.74;100.00
23899;BME280;20544;50.018;20.010;2023-01-31T03:32:37;98190.77;;;1.74;100.00
23899;BME280;20544;50.018;20.010;2023-01-31T03:36:01;98195.88;;;1.76;100.00
23899;BME280;20544;50.018;20.010;2023-01-31T03:39:22;98203.28;;;1.81;100.00
23899;BME280;20544;50.018;20.010;2023-01-31T03:42:46;98219.12;;;1.79;100.00
23899;BME280;20544;50.018;20.010;2023-01-31T03:46:08;98217.46;;;1.78;100.00
23899;BME280;20544;50.018;20.010;2023-01-31T03:49:30;98217.20;;;1.81;100.00
23899;BME280;20544;50.018;20.010;2023-01-31T03:52:54;98217.75;;;1.85;100.00
23899;BME280;20544;50.018;20.010;2023-01-31T03:56:12;98230.28;;;1.81;100.00
23899;BME280;20544;50.018;20.010;2023-01-31T03:59:33;98232.34;;;1.77;100.00
23899;BME280;20544;50.018;20.010;2023-01-31T04:02:54;98238.27;;;1.80;100.00
23899;BME280;20544;50.018;20.010;2023-01-31T04:06:13;98229.98;;;1.74;100.00
23899;BME280;20544;50.018;20.010;2023-01-31T04:09:30;98233.16;;;1.78;100.00
23899;BME280;20544;50.018;20.010;2023-01-31T04:12:47;98245.82;;;1.83;100.00
23899;BME280;20544;50.018;20.010;2023-01-31T04:16:04;98250.09;;;1.84;100.00
23899;BME280;20544;50.018;20.010;2023-01-31T04:19:21;98247.08;;;1.78;100.00
23899;BME280;20544;50.018;20.010;2023-01-31T04:22:40;98252.97;;;1.81;100.00
23899;BME280;20544;50.018;20.010;2023-01-31T04:25:57;98253.81;;;1.81;100.00
23899;BME280;20544;50.018;20.010;2023-01-31T04:29:13;98252.16;;;1.80;100.00
23899;BME280;20544;50.018;20.010;2023-01-31T04:32:31;98264.68;;;1.76;100.00
23899;BME280;20544;50.018;20.010;2023-01-31T04:35:47;98263.72;;;1.77;100.00
23899;BME280;20544;50.018;20.010;2023-01-31T04:39:08;98271.83;;;1.74;100.00
23899;BME280;20544;50.018;20.010;2023-01-31T04:42:25;98274.73;;;1.71;100.00
23899;BME280;20544;50.018;20.010;2023-01-31T04:45:43;98276.39;;;1.72;100.00
23899;BME280;20544;50.018;20.010;2023-01-31T04:48:59;98289.17;;;1.66;100.00
23899;BME280;20544;50.018;20.010;2023-01-31T04:52:16;98285.33;;;1.60;100.00
23899;BME280;20544;50.018;20.010;2023-01-31T04:55:32;98298.00;;;1.65;100.00
23899;BME280;20544;50.018;20.010;2023-01-31T04:58:49;98316.70;;;1.60;100.00
23899;BME280;20544;50.018;20.010;2023-01-31T05:02:05;98309.67;;;1.60;100.00
23899;BME280;20544;50.018;20.010;2023-01-31T05:05:23;98304.58;;;1.59;100.00
23899;BME280;20544;50.018;20.010;2023-01-31T05:08:42;98331.02;;;1.56;100.00
23899;BME280;20544;50.018;20.010;2023-01-31T05:12:00;98326.58;;;1.47;100.00
23899;BME280;20544;50.018;20.010;2023-01-31T05:15:18;98328.52;;;1.54;100.00
23899;BME280;20544;50.018;20.010;2023-01-31T05:18:36;98337.03;;;1.47;100.00
23899;BME280;20544;50.018;20.010;2023-01-31T05:21:52;98344.88;;;1.47;100.00
23899;BME280;20544;50.018;20.010;2023-01-31T05:25:11;98343.92;;;1.48;100.00
23899;BME280;20544;50.018;20.010;2023-01-31T05:28:28;98357.23;;;1.44;100.00
23899;BME280;20544;50.018;20.010;2023-01-31T05:31:44;98362.05;;;1.39;100.00
23899;BME280;20544;50.018;20.010;2023-01-31T05:35:01;98368.93;;;1.40;100.00
23899;BME280;20544;50.018;20.010;2023-01-31T05:38:18;98373.34;;;1.40;100.00
23899;BME280;20544;50.018;20.010;2023-01-31T05:41:34;98377.48;;;1.42;100.00
23899;BME280;20544;50.018;20.010;2023-01-31T05:44:51;98388.07;;;1.41;100.00
23899;BME280;20544;50.018;20.010;2023-01-31T05:48:07;98387.23;;;1.40;100.00
23899;BME280;20544;50.018;20.010;2023-01-31T05:51:24;98384.89;;;1.37;100.00
23899;BME280;20544;50.018;20.010;2023-01-31T05:54:42;98404.81;;;1.38;100.00
23899;BME280;20544;50.018;20.010;2023-01-31T05:57:59;98414.06;;;1.42;100.00
23899;BME280;20544;50.018;20.010;2023-01-31T06:01:15;98418.20;;;1.45;100.00
23899;BME280;20544;50.018;20.010;2023-01-31T06:04:33;98414.88;;;1.43;100.00
23899;BME280;20544;50.018;20.010;2023-01-31T06:07:50;98413.22;;;1.42;100.00
23899;BME280;20544;50.018;20.010;2023-01-31T06:11:10;98422.72;;;1.43;100.00
23899;BME280;20544;50.018;20.010;2023-01-31T06:14:27;98428.66;;;1.45;100.00
23899;BME280;20544;50.018;20.010;2023-01-31T06:17:43;98436.36;;;1.47;100.00
23899;BME280;20544;50.018;20.010;2023-01-31T06:20:59;98444.20;;;1.47;100.00
23899;BME280;20544;50.018;20.010;2023-01-31T06:24:20;98454.80;;;1.45;100.00
23899;BME280;20544;50.018;20.010;2023-01-31T06:27:37;98459.74;;;1.48;100.00
23899;BME280;20544;50.018;20.010;2023-01-31T06:30:53;98468.43;;;1.49;100.00
23899;BME280;20544;50.018;20.010;2023-01-31T06:34:09;98475.84;;;1.43;100.00
23899;BME280;20544;50.018;20.010;2023-01-31T06:37:26;98477.94;;;1.50;100.00
23899;BME280;20544;50.018;20.010;2023-01-31T06:40:43;98482.45;;;1.48;100.00
23899;BME280;20544;50.018;20.010;2023-01-31T06:43:59;98484.12;;;1.49;100.00
23899;BME280;20544;50.018;20.010;2023-01-31T06:47:16;98491.25;;;1.47;100.00
23899;BME280;20544;50.018;20.010;2023-01-31T06:50:32;98496.84;;;1.32;100.00
23899;BME280;20544;50.018;20.010;2023-01-31T06:53:50;98507.84;;;1.36;100.00
23899;BME280;20544;50.018;20.010;2023-01-31T06:57:06;98509.25;;;1.40;100.00
23899;BME280;20544;50.018;20.010;2023-01-31T07:00:23;98521.61;;;1.38;100.00
23899;BME280;20544;50.018;20.010;2023-01-31T07:03:40;98532.64;;;1.41;100.00
23899;BME280;20544;50.018;20.010;2023-01-31T07:07:00;98535.12;;;1.43;100.00
23899;BME280;20544;50.018;20.010;2023-01-31T07:10:17;98548.97;;;1.34;100.00
23899;BME280;20544;50.018;20.010;2023-01-31T07:13:34;98546.09;;;1.37;100.00
23899;BME280;20544;50.018;20.010;2023-01-31T07:16:51;98554.77;;;1.37;100.00
23899;BME280;20544;50.018;20.010;2023-01-31T07:20:10;98563.73;;;1.44;100.00
23899;BME280;20544;50.018;20.010;2023-01-31T07:23:27;98568.86;;;1.46;100.00
23899;BME280;20544;50.018;20.010;2023-01-31T07:26:44;98568.14;;;1.44;100.00
23899;BME280;20544;50.018;20.010;2023-01-31T07:30:00;98578.09;;;1.50;100.00
23899;BME280;20544;50.018;20.010;2023-01-31T07:33:17;98583.62;;;1.57;100.00
23899;BME280;20544;50.018;20.010;2023-01-31T07:36:34;98582.80;;;1.56;100.00
23899;BME280;20544;50.018;20.010;2023-01-31T07:39:51;98585.28;;;1.58;100.00
23899;BME280;20544;50.018;20.010;2023-01-31T07:43:07;98582.53;;;1.59;100.00
23899;BME280;20544;50.018;20.010;2023-01-31T07:46:24;98587.59;;;1.51;100.00
23899;BME280;20544;50.018;20.010;2023-01-31T07:49:40;98589.42;;;1.60;100.00
23899;BME280;20544;50.018;20.010;2023-01-31T07:52:59;98585.03;;;1.61;100.00
23899;BME280;20544;50.018;20.010;2023-01-31T07:56:18;98600.15;;;1.57;100.00
23899;BME280;20544;50.018;20.010;2023-01-31T07:59:34;98600.15;;;1.57;100.00
23899;BME280;20544;50.018;20.010;2023-01-31T08:02:51;98594.65;;;1.60;100.00
23899;BME280;20544;50.018;20.010;2023-01-31T08:06:24;98598.79;;;1.63;100.00
23899;BME280;20544;50.018;20.010;2023-01-31T08:09:40;98590.84;;;1.65;100.00
23899;BME280;20544;50.018;20.010;2023-01-31T08:12:58;98601.02;;;1.68;100.00
23899;BME280;20544;50.018;20.010;2023-01-31T08:16:17;98606.02;;;1.71;100.00
23899;BME280;20544;50.018;20.010;2023-01-31T08:19:32;98612.88;;;1.72;100.00
23899;BME280;20544;50.018;20.010;2023-01-31T08:22:48;98614.09;;;1.68;100.00
23899;BME280;20544;50.018;20.010;2023-01-31T08:26:06;98625.44;;;1.78;100.00
23899;BME280;20544;50.018;20.010;2023-01-31T08:29:27;98640.17;;;1.79;100.00
23899;BME280;20544;50.018;20.010;2023-01-31T08:32:44;98631.81;;;1.85;100.00
23899;BME280;20544;50.018;20.010;2023-01-31T08:36:08;98630.99;;;1.85;100.00
23899;BME280;20544;50.018;20.010;2023-01-31T08:39:27;98642.14;;;1.87;100.00
23899;BME280;20544;50.018;20.010;2023-01-31T08:42:44;98641.27;;;1.76;100.00
23899;BME280;20544;50.018;20.010;2023-01-31T08:46:08;98645.27;;;1.81;100.00
23899;BME280;20544;50.018;20.010;2023-01-31T08:49:25;98645.54;;;1.77;100.00
23899;BME280;20544;50.018;20.010;2023-01-31T08:52:43;98654.78;;;1.82;100.00
23899;BME280;20544;50.018;20.010;2023-01-31T08:56:04;98654.02;;;1.91;100.00
23899;BME280;20544;50.018;20.010;2023-01-31T08:59:21;98652.80;;;1.95;100.00
23899;BME280;20544;50.018;20.010;2023-01-31T09:02:38;98669.77;;;2.01;100.00
23899;BME280;20544;50.018;20.010;2023-01-31T09:06:01;98675.55;;;2.04;100.00
23899;BME280;20544;50.018;20.010;2023-01-31T09:09:19;98665.55;;;2.09;100.00
23899;BME280;20544;50.018;20.010;2023-01-31T09:12:37;98665.66;;;2.08;100.00
23899;BME280;20544;50.018;20.010;2023-01-31T09:16:00;98678.11;;;2.16;100.00
23899;BME280;20544;50.018;20.010;2023-01-31T09:19:18;98682.69;;;2.23;100.00
23899;BME280;20544;50.018;20.010;2023-01-31T09:22:39;98671.55;;;2.31;100.00
23899;BME280;20544;50.018;20.010;2023-01-31T09:25:58;98681.16;;;2.21;100.00
23899;BME280;20544;50.018;20.010;2023-01-31T09:29:16;98675.79;;;2.22;100.00
23899;BME280;20544;50.018;20.010;2023-01-31T09:32:32;98673.46;;;2.29;100.00
23899;BME280;20544;50.018;20.010;2023-01-31T09:35:58;98679.80;;;2.26;100.00
23899;BME280;20544;50.018;20.010;2023-01-31T09:39:16;98679.13;;;2.34;100.00
23899;BME280;20544;50.018;20.010;2023-01-31T09:42:35;98680.11;;;2.33;100.00
23899;BME280;20544;50.018;20.010;2023-01-31T09:45:59;98681.50;;;2.37;100.00
23899;BME280;20544;50.018;20.010;2023-01-31T09:49:21;98681.75;;;2.34;100.00
23899;BME280;20544;50.018;20.010;2023-01-31T09:52:41;98669.37;;;2.36;100.00
23899;BME280;20544;50.018;20.010;2023-01-31T09:56:03;98682.45;;;2.36;100.00
23899;BME280;20544;50.018;20.010;2023-01-31T09:59:31;98683.55;;;2.34;100.00
23899;BME280;20544;50.018;20.010;2023-01-31T10:07:05;98673.65;;;2.37;100.00
23899;BME280;20544;50.018;20.010;2023-01-31T10:10:30;98682.73;;;2.33;100.00
23899;BME280;20544;50.018;20.010;2023-01-31T10:13:52;98685.08;;;2.36;100.00
23899;BME280;20544;50.018;20.010;2023-01-31T10:17:15;98673.22;;;2.32;100.00
23899;BME280;20544;50.018;20.010;2023-01-31T10:20:37;98679.13;;;2.34;100.00
23899;BME280;20544;50.018;20.010;2023-01-31T10:23:59;98683.84;;;2.40;100.00
23899;BME280;20544;50.018;20.010;2023-01-31T10:27:24;98689.92;;;2.41;100.00
23899;BME280;20544;50.018;20.010;2023-01-31T10:30:53;98685.21;;;2.35;100.00
23899;BME280;20544;50.018;20.010;2023-01-31T10:34:14;98690.45;;;2.35;100.00
23899;BME280;20544;50.018;20.010;2023-01-31T10:37:38;98691.02;;;2.38;100.00
23899;BME280;20544;50.018;20.010;2023-01-31T10:40:58;98689.60;;;2.34;100.00
23899;BME280;20544;50.018;20.010;2023-01-31T10:44:26;98691.83;;;2.39;100.00
23899;BME280;20544;50.018;20.010;2023-01-31T10:47:51;98693.88;;;2.35;100.00
23899;BME280;20544;50.018;20.010;2023-01-31T10:51:17;98705.49;;;2.42;100.00
23899;BME280;20544;50.018;20.010;2023-01-31T10:54:45;98702.34;;;2.49;100.00
23899;BME280;20544;50.018;20.010;2023-01-31T10:58:09;98699.59;;;2.50;100.00
23899;BME280;20544;50.018;20.010;2023-01-31T11:01:30;98699.30;;;2.43;100.00
23899;BME280;20544;50.018;20.010;2023-01-31T11:04:47;98689.53;;;2.46;100.00
23899;BME280;20544;50.018;20.010;2023-01-31T11:08:16;98687.34;;;2.51;100.00
23899;BME280;20544;50.018;20.010;2023-01-31T11:11:35;98686.25;;;2.53;100.00
23899;BME280;20544;50.018;20.010;2023-01-31T11:15:13;98689.44;;;2.57;100.00
23899;BME280;20544;50.018;20.010;2023-01-31T11:18:34;98683.24;;;2.58;100.00
23899;BME280;20544;50.018;20.010;2023-01-31T11:21:54;98689.82;;;2.52;100.00
23899;BME280;20544;50.018;20.010;2023-01-31T11:25:18;98689.69;;;2.54;100.00
23899;BME280;20544;50.018;20.010;2023-01-31T11:28:38;98683.24;;;2.58;100.00
23899;BME280;20544;50.018;20.010;2023-01-31T11:31:56;98684.77;;;2.61;100.00
23899;BME280;20544;50.018;20.010;2023-01-31T11:35:28;98682.00;;;2.62;100.00
23899;BME280;20544;50.018;20.010;2023-01-31T11:38:46;98688.63;;;2.66;100.00
23899;BME280;20544;50.018;20.010;2023-01-31T11:42:14;98690.67;;;2.63;100.00
23899;BME280;20544;50.018;20.010;2023-01-31T11:45:31;98693.86;;;2.66;100.00
23899;BME280;20544;50.018;20.010;2023-01-31T11:48:48;98691.48;;;2.53;100.00
23899;BME280;20544;50.018;20.010;2023-01-31T11:52:12;98685.41;;;2.53;100.00
23899;BME280;20544;50.018;20.010;2023-01-31T11:55:38;98683.48;;;2.55;100.00
23899;BME280;20544;50.018;20.010;2023-01-31T11:58:58;98679.59;;;2.49;100.00
23899;BME280;20544;50.018;20.010;2023-01-31T12:02:25;98681.83;;;2.54;100.00
23899;BME280;20544;50.018;20.010;2023-01-31T12:06:00;98684.45;;;2.54;100.00
23899;BME280;20544;50.018;20.010;2023-01-31T12:09:22;98682.77;;;2.43;100.00
23899;BME280;20544;50.018;20.010;2023-01-31T12:12:43;98677.88;;;2.29;100.00
23899;BME280;20544;50.018;20.010;2023-01-31T12:16:01;98670.84;;;2.29;100.00
23899;BME280;20544;50.018;20.010;2023-01-31T12:19:27;98674.46;;;2.38;100.00
23899;BME280;20544;50.018;20.010;2023-01-31T12:22:51;98676.41;;;2.36;100.00
23899;BME280;20544;50.018;20.010;2023-01-31T12:26:15;98666.50;;;2.39;100.00
23899;BME280;20544;50.018;20.010;2023-01-31T12:29:57;98664.84;;;2.38;100.00
23899;BME280;20544;50.018;20.010;2023-01-31T12:33:45;98661.13;;;2.41;100.00
23899;BME280;20544;50.018;20.010;2023-01-31T12:37:23;98661.94;;;2.41;100.00
23899;BME280;20544;50.018;20.010;2023-01-31T12:40:45;98670.92;;;2.49;100.00
23899;BME280;20544;50.018;20.010;2023-01-31T12:44:16;98665.30;;;2.53;100.00
23899;BME280;20544;50.018;20.010;2023-01-31T12:51:49;98664.88;;;2.48;100.00
23899;BME280;20544;50.018;20.010;2023-01-31T12:55:17;98662.37;;;2.47;100.00
23899;BME280;20544;50.018;20.010;2023-01-31T12:58:51;98648.17;;;2.49;100.00
23899;BME280;20544;50.018;20.010;2023-01-31T13:02:30;98656.59;;;2.53;100.00
23899;BME280;20544;50.018;20.010;2023-01-31T13:05:55;98654.16;;;2.61;100.00
23899;BME280;20544;50.018;20.010;2023-01-31T13:09:18;98646.18;;;2.72;100.00
23899;BME280;20544;50.018;20.010;2023-01-31T13:12:37;98649.34;;;2.66;100.00
23899;BME280;20544;50.018;20.010;2023-01-31T13:15:56;98644.52;;;2.71;100.00
23899;BME280;20544;50.018;20.010;2023-01-31T13:19:18;98643.02;;;2.79;100.00
23899;BME280;20544;50.018;20.010;2023-01-31T13:22:40;98639.59;;;2.78;100.00
23899;BME280;20544;50.018;20.010;2023-01-31T13:26:04;98640.00;;;2.83;100.00
23899;BME280;20544;50.018;20.010;2023-01-31T13:29:26;98640.00;;;2.83;100.00
23899;BME280;20544;50.018;20.010;2023-01-31T13:32:47;98641.11;;;2.81;100.00
23899;BME280;20544;50.018;20.010;2023-01-31T13:39:25;98645.91;;;2.66;100.00
23899;BME280;20544;50.018;20.010;2023-01-31T13:42:43;98637.36;;;2.73;100.00
23899;BME280;20544;50.018;20.010;2023-01-31T13:46:04;98638.07;;;2.75;100.00
23899;BME280;20544;50.018;20.010;2023-01-31T13:52:40;98635.00;;;2.61;100.00
23899;BME280;20544;50.018;20.010;2023-01-31T13:56:02;98630.33;;;2.64;100.00
23899;BME280;20544;50.018;20.010;2023-01-31T13:59:24;98633.59;;;2.56;100.00
23899;BME280;20544;50.018;20.010;2023-01-31T14:09:31;98634.41;;;2.47;100.00
23899;BME280;20544;50.018;20.010;2023-01-31T14:12:48;98640.33;;;2.49;100.00
23899;BME280;20544;50.018;20.010;2023-01-31T14:20:14;98632.47;;;2.49;100.00
23899;BME280;20544;50.018;20.010;2023-01-31T14:23:44;98630.41;;;2.43;100.00
23899;BME280;20544;50.018;20.010;2023-01-31T14:27:00;98623.94;;;2.47;100.00
23899;BME280;20544;50.018;20.010;2023-01-31T14:30:35;98625.03;;;2.45;100.00
23899;BME280;20544;50.018;20.010;2023-01-31T14:37:14;98618.28;;;2.42;100.00
23899;BME280;20544;50.018;20.010;2023-01-31T14:40:36;98617.44;;;2.41;100.00
23899;BME280;20544;50.018;20.010;2023-01-31T14:44:01;98618.92;;;2.34;100.00
23899;BME280;20544;50.018;20.010;2023-01-31T14:47:30;98615.23;;;2.37;100.00
23899;BME280;20544;50.018;20.010;2023-01-31T14:54:19;98603.21;;;2.24;100.00
23899;BME280;20544;50.018;20.010;2023-01-31T14:57:47;98602.23;;;2.25;100.00
23899;BME280;20544;50.018;20.010;2023-01-31T15:01:08;98603.89;;;2.26;100.00
23899;BME280;20544;50.018;20.010;2023-01-31T15:11:00;98598.08;;;2.13;100.00
23899;BME280;20544;50.018;20.010;2023-01-31T15:14:30;98589.67;;;2.19;100.00
23899;BME280;20544;50.018;20.010;2023-01-31T15:17:53;98586.80;;;2.22;100.00
23899;BME280;20544;50.018;20.010;2023-01-31T15:21:16;98583.02;;;2.05;100.00
23899;BME280;20544;50.018;20.010;2023-01-31T15:24:37;98583.33;;;2.12;100.00
23899;BME280;20544;50.018;20.010;2023-01-31T15:27:57;98585.20;;;2.00;100.00
23899;BME280;20544;50.018;20.010;2023-01-31T15:31:19;98584.53;;;1.98;100.00
23899;BME280;20544;50.018;20.010;2023-01-31T15:37:58;98598.09;;;1.82;100.00
23899;BME280;20544;50.018;20.010;2023-01-31T15:41:20;98584.95;;;1.72;100.00
23899;BME280;20544;50.018;20.010;2023-01-31T15:44:40;98580.02;;;1.79;100.00
23899;BME280;20544;50.018;20.010;2023-01-31T15:48:02;98576.97;;;1.74;100.00
23899;BME280;20544;50.018;20.010;2023-01-31T15:51:22;98576.92;;;1.64;100.00
23899;BME280;20544;50.018;20.010;2023-01-31T15:54:42;98575.15;;;1.65;100.00
23899;BME280;20544;50.018;20.010;2023-01-31T15:58:15;98574.06;;;1.67;100.00
23899;BME280;20544;50.018;20.010;2023-01-31T16:01:33;98571.12;;;1.60;100.00
23899;BME280;20544;50.018;20.010;2023-01-31T16:04:50;98558.56;;;1.54;100.00
23899;BME280;20544;50.018;20.010;2023-01-31T16:08:15;98547.80;;;1.48;100.00
23899;BME280;20544;50.018;20.010;2023-01-31T16:11:34;98544.67;;;1.54;100.00
23899;BME280;20544;50.018;20.010;2023-01-31T16:14:51;98546.58;;;1.52;100.00
23899;BME280;20544;50.018;20.010;2023-01-31T16:18:11;98538.60;;;1.53;100.00
23899;BME280;20544;50.018;20.010;2023-01-31T16:21:32;98537.41;;;1.57;100.00
23899;BME280;20544;50.018;20.010;2023-01-31T16:24:56;98533.84;;;1.58;100.00
23899;BME280;20544;50.018;20.010;2023-01-31T16:28:15;98530.23;;;1.59;100.00
23899;BME280;20544;50.018;20.010;2023-01-31T16:31:33;98535.93;;;1.65;100.00
23899;BME280;20544;50.018;20.010;2023-01-31T16:34:58;98541.84;;;1.67;100.00
23899;BME280;20544;50.018;20.010;2023-01-31T16:38:22;98532.98;;;1.58;100.00
23899;BME280;20544;50.018;20.010;2023-01-31T16:41:44;98533.27;;;1.55;100.00
23899;BME280;20544;50.018;20.010;2023-01-31T16:48:44;98532.83;;;1.50;100.00
23899;BME280;20544;50.018;20.010;2023-01-31T16:52:28;98532.50;;;1.43;100.00
23899;BME280;20544;50.018;20.010;2023-01-31T16:55:46;98530.98;;;1.40;100.00
23899;BME280;20544;50.018;20.010;2023-01-31T16:59:45;98524.09;;;1.39;100.00
23899;BME280;20544;50.018;20.010;2023-01-31T17:03:10;98535.25;;;1.41;100.00
23899;BME280;20544;50.018;20.010;2023-01-31T17:06:31;98528.94;;;1.44;100.00
23899;BME280;20544;50.018;20.010;2023-01-31T17:09:51;98517.25;;;1.48;100.00
23899;BME280;20544;50.018;20.010;2023-01-31T17:13:14;98517.66;;;1.43;100.00
23899;BME280;20544;50.018;20.010;2023-01-31T17:16:35;98523.27;;;1.39;100.00
23899;BME280;20544;50.018;20.010;2023-01-31T17:19:53;98513.03;;;1.26;100.00
23899;BME280;20544;50.018;20.010;2023-01-31T17:23:10;98501.67;;;1.16;100.00
23899;BME280;20544;50.018;20.010;2023-01-31T17:26:28;98507.31;;;1.11;100.00
23899;BME280;20544;50.018;20.010;2023-01-31T17:29:46;98505.64;;;1.10;100.00
23899;BME280;20544;50.018;20.010;2023-01-31T17:33:03;98495.57;;;1.05;100.00
23899;BME280;20544;50.018;20.010;2023-01-31T17:36:20;98500.53;;;1.08;100.00
23899;BME280;20544;50.018;20.010;2023-01-31T17:39:36;98503.84;;;1.10;100.00
23899;BME280;20544;50.018;20.010;2023-01-31T17:42:55;98496.02;;;1.10;100.00
23899;BME280;20544;50.018;20.010;2023-01-31T17:46:15;98496.02;;;1.10;100.00
23899;BME280;20544;50.018;20.010;2023-01-31T17:49:32;98505.95;;;1.17;100.00
23899;BME280;20544;50.018;20.010;2023-01-31T17:54:28;98506.66;;;1.19;100.00
23899;BME280;20544;50.018;20.010;2023-01-31T17:57:47;98502.02;;;1.22;100.00
23899;BME280;20544;50.018;20.010;2023-01-31T18:01:06;98500.21;;;1.23;100.00
23899;BME280;20544;50.018;20.010;2023-01-31T18:04:22;98507.40;;;1.31;100.00
23899;BME280;20544;50.018;20.010;2023-01-31T18:07:40;98498.09;;;1.38;100.00
23899;BME280;20544;50.018;20.010;2023-01-31T18:11:03;98493.16;;;1.44;100.00
23899;BME280;20544;50.018;20.010;2023-01-31T18:14:21;98484.25;;;1.47;100.00
23899;BME280;20544;50.018;20.010;2023-01-31T18:17:38;98474.86;;;1.44;100.00